Etusivu
METAR-TAF:

METAR-TAF

Lentoasemat :

Lappeenranta, Suomi

Lappeenrannan lentoasema

Leveyspiiri: 61-02-45N, Pituuspiiri: 028-08-55E, korkeus merenpinnasta: 106 m

Tämänhetkinen sää

Tämä raportti tehtiin 29 minuuttia sitten, kello 07.20 UTC
Tuuli 6 kn pohjoisen/luoteesta, vaihdellen lännen/luoteen ja pohjoisen välillä
Lämpötila -12°C
Kosteus 92%
Ilmanpaine 1033 hPa
Näkyvyys 10 km tai enemmän
Pilvistä 3900 ft:n korkeudessa
heikkoja lumikuuroja

METAR: EFLP 250720Z AUTO 33006KT 300V360 9999 -SHSN OVC039 M12/M13 Q1033

Aika: 09:49 (07:49 UTC)


TAF: puuttuu

Säähavainnot ja -ennusteet yli 4000 lentoasemalta (METAR- ja TAF-raportit).

Käytössä olevat sääasemat on merkitty karttaan keltaisilla ja punaisilla pisteillä.

Aseta hiiri pisteen päälle nähdäksesi sääaseman nimen.

Klikkaa sitten nähdäksesi säähavainnot ja -ennusteet.

Kartan vaihtaminen: klikkaa mustalla rastilla varustettuja vihreitä pisteitä, niin voit zoomata sisään; viivalla varustettua vihreää pistettä, niin voit zoomata ulos tai vihreitä nuolia, niin pääset viereisille kartoille.


METAR-TAF: